createdAt,value
2016-05-17T00:00:37.281Z,0
2016-05-17T00:01:37.253Z,0
2016-05-17T00:02:37.240Z,0
2016-05-17T00:03:37.242Z,0
2016-05-17T00:04:37.058Z,0
2016-05-17T00:05:37.060Z,0
2016-05-17T00:06:37.188Z,0
2016-05-17T00:07:37.175Z,0
2016-05-17T00:08:37.146Z,0
2016-05-17T00:09:37.164Z,0
2016-05-17T00:10:37.136Z,0
2016-05-17T00:11:37.124Z,0
2016-05-17T00:12:37.095Z,0
2016-05-17T00:13:37.097Z,0
2016-05-17T00:14:37.085Z,0
2016-05-17T00:15:37.055Z,0
2016-05-17T00:16:36.887Z,0
2016-05-17T00:17:36.733Z,0
2016-05-17T00:18:37.017Z,0
2016-05-17T00:19:36.849Z,0
2016-05-17T00:20:36.991Z,0
2016-05-17T00:21:37.276Z,0
2016-05-17T00:22:36.966Z,0
2016-05-17T00:23:36.796Z,0
2016-05-17T00:24:36.768Z,0
2016-05-17T00:25:36.911Z,0
2016-05-17T00:26:36.914Z,0
2016-05-17T00:27:36.901Z,0
2016-05-17T00:28:36.732Z,0
2016-05-17T00:29:36.875Z,0
2016-05-17T00:30:36.878Z,0
2016-05-17T00:31:36.833Z,0
2016-05-17T00:32:36.837Z,0
2016-05-17T00:33:36.823Z,0
2016-05-17T00:34:36.638Z,0
2016-05-17T00:35:36.781Z,0
2016-05-17T00:36:37.487Z,0
2016-05-17T00:37:36.756Z,0
2016-05-17T00:38:36.743Z,0
2016-05-17T00:39:36.589Z,0
2016-05-17T00:40:36.405Z,0
2016-05-17T00:41:36.391Z,0
2016-05-17T00:42:36.691Z,0
2016-05-17T00:43:36.678Z,0
2016-05-17T00:44:36.666Z,0
2016-05-17T00:45:36.497Z,0
2016-05-17T00:46:36.655Z,0
2016-05-17T00:47:36.471Z,0
2016-05-17T00:48:36.458Z,0
2016-05-17T00:49:36.601Z,0
2016-05-17T00:50:36.603Z,0
2016-05-17T00:51:37.168Z,0
2016-05-17T00:52:36.546Z,0
2016-05-17T00:53:36.377Z,0
2016-05-17T00:54:36.535Z,0
2016-05-17T00:55:36.523Z,0
2016-05-17T00:56:36.354Z,0
2016-05-17T00:57:36.340Z,0
2016-05-17T00:58:36.328Z,0
2016-05-17T00:59:36.456Z,0
2016-05-17T01:00:36.131Z,0
2016-05-17T01:01:36.134Z,0
2016-05-17T01:02:36.261Z,0
2016-05-17T01:03:36.404Z,0
2016-05-17T01:04:36.391Z,0
2016-05-17T01:05:36.378Z,0
2016-05-17T01:06:36.739Z,0
2016-05-17T01:07:36.353Z,0
2016-05-17T01:08:36.339Z,0
2016-05-17T01:09:36.311Z,0
2016-05-17T01:10:36.314Z,0
2016-05-17T01:11:36.144Z,0
2016-05-17T01:12:36.288Z,0
2016-05-17T01:13:36.259Z,0
2016-05-17T01:14:36.261Z,0
2016-05-17T01:15:36.092Z,0
2016-05-17T01:16:36.220Z,0
2016-05-17T01:17:36.208Z,0
2016-05-17T01:18:36.210Z,0
2016-05-17T01:19:36.025Z,0
2016-05-17T01:20:36.169Z,0
2016-05-17T01:21:36.218Z,0
2016-05-17T01:22:35.986Z,0
2016-05-17T01:23:36.129Z,0
2016-05-17T01:24:35.804Z,0
2016-05-17T01:25:35.948Z,0
2016-05-17T01:26:35.622Z,0
2016-05-17T01:27:36.078Z,0
2016-05-17T01:28:35.909Z,0
2016-05-17T01:29:36.051Z,0
2016-05-17T01:30:35.867Z,0
2016-05-17T01:31:35.885Z,0
2016-05-17T01:32:35.872Z,0
2016-05-17T01:33:36.001Z,0
2016-05-17T01:34:35.831Z,0
2016-05-17T01:35:35.959Z,0
2016-05-17T01:36:36.181Z,0
2016-05-17T01:37:35.776Z,0
2016-05-17T01:38:35.920Z,0
2016-05-17T01:39:35.922Z,0
2016-05-17T01:40:35.894Z,0
2016-05-17T01:41:35.569Z,0
2016-05-17T01:42:35.556Z,0
2016-05-17T01:43:35.871Z,0
2016-05-17T01:44:35.842Z,0
2016-05-17T01:45:35.829Z,0
2016-05-17T01:46:35.816Z,0
2016-05-17T01:47:35.803Z,0
2016-05-17T01:48:35.790Z,0
2016-05-17T01:49:35.778Z,0
2016-05-17T01:50:35.765Z,0
2016-05-17T01:51:36.424Z,0
2016-05-17T01:52:35.724Z,0
2016-05-17T01:53:35.413Z,0
2016-05-17T01:54:35.697Z,0
2016-05-17T01:55:35.371Z,0
2016-05-17T01:56:35.687Z,0
2016-05-17T01:57:35.643Z,0
2016-05-17T01:58:35.646Z,0
2016-05-17T01:59:35.648Z,0
2016-05-17T02:00:35.635Z,0
2016-05-17T02:01:35.607Z,0
2016-05-17T02:02:35.578Z,0
2016-05-17T02:03:35.425Z,0
2016-05-17T02:04:35.630Z,0
2016-05-17T02:05:35.399Z,0
2016-05-17T02:06:35.276Z,0
2016-05-17T02:07:35.217Z,0
2016-05-17T02:08:35.501Z,0
2016-05-17T02:09:35.347Z,0
2016-05-17T02:10:35.475Z,0
2016-05-17T02:11:35.447Z,0
2016-05-17T02:12:35.464Z,0
2016-05-17T02:13:35.295Z,0
2016-05-17T02:14:35.423Z,0
2016-05-17T02:15:35.410Z,0
2016-05-17T02:16:35.397Z,0
2016-05-17T02:17:35.384Z,0
2016-05-17T02:18:35.215Z,0
2016-05-17T02:19:35.359Z,0
2016-05-17T02:20:35.204Z,0
2016-05-17T02:21:35.551Z,0
2016-05-17T02:22:35.319Z,0
2016-05-17T02:23:35.307Z,0
2016-05-17T02:24:35.278Z,0
2016-05-17T02:25:35.265Z,0
2016-05-17T02:26:35.268Z,0
2016-05-17T02:27:35.083Z,0
2016-05-17T02:28:35.070Z,0
2016-05-17T02:29:35.245Z,0
2016-05-17T02:30:35.044Z,0
2016-05-17T02:31:35.188Z,0
2016-05-17T02:32:35.065Z,0
2016-05-17T02:33:34.849Z,0
2016-05-17T02:34:34.804Z,0
2016-05-17T02:35:34.667Z,0
2016-05-17T02:36:34.966Z,0
2016-05-17T02:37:34.876Z,0
2016-05-17T02:38:34.940Z,0
2016-05-17T02:39:34.834Z,0
2016-05-17T02:40:35.025Z,0
2016-05-17T02:41:34.933Z,0
2016-05-17T02:42:34.889Z,0
2016-05-17T02:43:34.719Z,0
2016-05-17T02:44:35.019Z,0
2016-05-17T02:45:34.834Z,0
2016-05-17T02:46:34.978Z,0
2016-05-17T02:47:34.965Z,0
2016-05-17T02:48:34.952Z,0
2016-05-17T02:49:34.923Z,0
2016-05-17T02:50:34.941Z,0
2016-05-17T02:51:34.601Z,0
2016-05-17T02:52:34.900Z,0
2016-05-17T02:53:34.888Z,0
2016-05-17T02:54:34.858Z,0
2016-05-17T02:55:34.846Z,0
2016-05-17T02:56:34.849Z,0
2016-05-17T02:57:34.679Z,0
2016-05-17T02:58:34.807Z,0
2016-05-17T02:59:34.654Z,0
2016-05-17T03:00:34.782Z,0
2016-05-17T03:01:34.612Z,0
2016-05-17T03:02:34.771Z,0
2016-05-17T03:03:34.742Z,0
2016-05-17T03:04:34.729Z,0
2016-05-17T03:05:34.717Z,0
2016-05-17T03:06:34.625Z,0
2016-05-17T03:07:34.690Z,0
2016-05-17T03:08:34.693Z,0
2016-05-17T03:09:34.648Z,0
2016-05-17T03:10:34.636Z,0
2016-05-17T03:11:34.483Z,0
2016-05-17T03:12:34.454Z,0
2016-05-17T03:13:34.441Z,0
2016-05-17T03:14:34.584Z,0
2016-05-17T03:15:34.586Z,0
2016-05-17T03:16:34.418Z,0
2016-05-17T03:17:34.545Z,0
2016-05-17T03:18:34.392Z,0
2016-05-17T03:19:34.520Z,0
2016-05-17T03:20:34.507Z,0
2016-05-17T03:21:34.571Z,0
2016-05-17T03:22:34.496Z,0
2016-05-17T03:23:34.327Z,0
2016-05-17T03:24:34.299Z,0
2016-05-17T03:25:34.285Z,0
2016-05-17T03:26:34.507Z,0
2016-05-17T03:27:34.291Z,0
2016-05-17T03:28:34.404Z,0
2016-05-17T03:29:35.624Z,0
2016-05-17T03:30:34.065Z,0
2016-05-17T03:31:34.348Z,0
2016-05-17T03:32:34.196Z,0
2016-05-17T03:33:34.183Z,0
2016-05-17T03:34:34.310Z,5
2016-05-17T03:35:34.298Z,5
2016-05-17T03:36:34.284Z,5
2016-05-17T03:37:34.115Z,5
2016-05-17T03:38:34.101Z,5
2016-05-17T03:39:34.246Z,5
2016-05-17T03:40:34.232Z,5
2016-05-17T03:41:34.064Z,5
2016-05-17T03:42:34.191Z,5
2016-05-17T03:43:34.194Z,10
2016-05-17T03:44:34.181Z,10
2016-05-17T03:45:34.152Z,10
2016-05-17T03:46:34.139Z,10
2016-05-17T03:47:33.969Z,10
2016-05-17T03:48:33.973Z,10
2016-05-17T03:49:34.116Z,15
2016-05-17T03:50:34.102Z,15
2016-05-17T03:51:34.419Z,15
2016-05-17T03:52:34.061Z,15
2016-05-17T03:53:34.049Z,15
2016-05-17T03:54:34.019Z,20
2016-05-17T03:55:33.866Z,20
2016-05-17T03:56:34.010Z,20
2016-05-17T03:57:33.982Z,20
2016-05-17T03:58:33.968Z,25
2016-05-17T03:59:33.955Z,25
2016-05-17T04:00:33.990Z,25
2016-05-17T04:01:33.788Z,30
2016-05-17T04:02:33.760Z,30
2016-05-17T04:03:33.903Z,30
2016-05-17T04:04:33.891Z,30
2016-05-17T04:05:33.722Z,30
2016-05-17T04:06:33.568Z,35
2016-05-17T04:07:33.852Z,35
2016-05-17T04:08:33.839Z,35
2016-05-17T04:09:33.826Z,35
2016-05-17T04:10:33.500Z,35
2016-05-17T04:11:33.644Z,35
2016-05-17T04:12:33.787Z,35
2016-05-17T04:13:33.462Z,40
2016-05-17T04:14:33.761Z,40
2016-05-17T04:15:33.576Z,40
2016-05-17T04:16:33.720Z,40
2016-05-17T04:17:33.722Z,40
2016-05-17T04:18:33.538Z,40
2016-05-17T04:19:33.524Z,45
2016-05-17T04:20:33.512Z,45
2016-05-17T04:21:33.750Z,50
2016-05-17T04:22:33.502Z,50
2016-05-17T04:23:33.614Z,55
2016-05-17T04:24:33.616Z,60
2016-05-17T04:25:33.603Z,65
2016-05-17T04:26:33.590Z,65
2016-05-17T04:27:33.562Z,70
2016-05-17T04:28:33.565Z,75
2016-05-17T04:29:33.552Z,80
2016-05-17T04:30:33.538Z,80
2016-05-17T04:31:33.510Z,80
2016-05-17T04:32:33.513Z,85
2016-05-17T04:33:33.031Z,85
2016-05-17T04:34:33.159Z,85
2016-05-17T04:35:33.458Z,85
2016-05-17T04:36:33.508Z,90
2016-05-17T04:37:33.293Z,90
2016-05-17T04:38:33.279Z,95
2016-05-17T04:39:33.251Z,100
2016-05-17T04:40:33.237Z,105
2016-05-17T04:41:33.381Z,115
2016-05-17T04:42:33.367Z,115
2016-05-17T04:43:33.355Z,120
2016-05-17T04:44:33.170Z,120
2016-05-17T04:45:33.173Z,120
2016-05-17T04:46:33.317Z,120
2016-05-17T04:47:33.303Z,120
2016-05-17T04:48:33.290Z,125
2016-05-17T04:49:33.277Z,125
2016-05-17T04:50:33.249Z,125
2016-05-17T04:51:33.579Z,130
2016-05-17T04:52:33.380Z,125
2016-05-17T04:53:33.211Z,135
2016-05-17T04:54:33.213Z,130
2016-05-17T04:55:33.184Z,130
2016-05-17T04:56:33.015Z,130
2016-05-17T04:57:33.158Z,135
2016-05-17T04:58:33.146Z,135
2016-05-17T04:59:33.116Z,140
2016-05-17T05:00:33.104Z,140
2016-05-17T05:01:33.091Z,145
2016-05-17T05:02:33.094Z,145
2016-05-17T05:03:33.096Z,145
2016-05-17T05:04:32.974Z,145
2016-05-17T05:05:33.054Z,145
2016-05-17T05:06:32.917Z,150
2016-05-17T05:07:33.559Z,150
2016-05-17T05:08:33.015Z,160
2016-05-17T05:09:33.056Z,170
2016-05-17T05:10:33.070Z,175
2016-05-17T05:11:32.913Z,190
2016-05-17T05:12:32.801Z,190
2016-05-17T05:13:33.144Z,200
2016-05-17T05:14:33.161Z,205
2016-05-17T05:15:33.241Z,210
2016-05-17T05:16:32.854Z,220
2016-05-17T05:17:33.168Z,230
2016-05-17T05:18:33.155Z,235
2016-05-17T05:19:32.997Z,245
2016-05-17T05:20:33.161Z,250
2016-05-17T05:21:33.278Z,255
2016-05-17T05:22:33.302Z,260
2016-05-17T05:23:33.106Z,265
2016-05-17T05:24:33.128Z,265
2016-05-17T05:25:33.102Z,265
2016-05-17T05:26:32.795Z,265
2016-05-17T05:27:33.095Z,265
2016-05-17T05:28:33.069Z,265
2016-05-17T05:29:32.886Z,265
2016-05-17T05:30:33.029Z,265
2016-05-17T05:31:33.048Z,265
2016-05-17T05:32:33.021Z,265
2016-05-17T05:33:33.040Z,265
2016-05-17T05:34:32.995Z,270
2016-05-17T05:35:32.859Z,275
2016-05-17T05:36:32.518Z,280
2016-05-17T05:37:32.349Z,295
2016-05-17T05:38:32.790Z,300
2016-05-17T05:39:32.933Z,300
2016-05-17T05:40:32.920Z,305
2016-05-17T05:41:32.907Z,315
2016-05-17T05:42:32.738Z,325
2016-05-17T05:43:32.429Z,335
2016-05-17T05:44:32.712Z,345
2016-05-17T05:45:32.715Z,350
2016-05-17T05:46:32.859Z,355
2016-05-17T05:47:32.829Z,355
2016-05-17T05:48:32.818Z,360
2016-05-17T05:49:32.819Z,360
2016-05-17T05:50:32.697Z,360
2016-05-17T05:51:33.247Z,360
2016-05-17T05:52:32.656Z,360
2016-05-17T05:53:32.768Z,360
2016-05-17T05:54:32.756Z,355
2016-05-17T05:55:32.586Z,355
2016-05-17T05:56:32.729Z,360
2016-05-17T05:57:32.560Z,365
2016-05-17T05:58:32.547Z,365
2016-05-17T05:59:32.706Z,370
2016-05-17T06:00:32.662Z,370
2016-05-17T06:01:32.664Z,370
2016-05-17T06:02:32.511Z,375
2016-05-17T06:03:32.655Z,380
2016-05-17T06:04:32.625Z,380
2016-05-17T06:05:32.456Z,380
2016-05-17T06:06:32.724Z,380
2016-05-17T06:07:32.586Z,370
2016-05-17T06:08:32.574Z,360
2016-05-17T06:09:32.577Z,350
2016-05-17T06:10:32.548Z,345
2016-05-17T06:11:32.394Z,350
2016-05-17T06:12:32.521Z,360
2016-05-17T06:13:32.524Z,370
2016-05-17T06:14:32.355Z,390
2016-05-17T06:15:32.483Z,410
2016-05-17T06:16:32.314Z,430
2016-05-17T06:17:32.317Z,450
2016-05-17T06:18:32.320Z,465
2016-05-17T06:19:32.447Z,490
2016-05-17T06:20:32.451Z,510
2016-05-17T06:21:32.499Z,530
2016-05-17T06:22:32.267Z,550
2016-05-17T06:23:32.239Z,575
2016-05-17T06:24:32.398Z,595
2016-05-17T06:25:32.370Z,610
2016-05-17T06:26:32.357Z,625
2016-05-17T06:27:32.626Z,645
2016-05-17T06:28:32.205Z,660
2016-05-17T06:29:32.178Z,660
2016-05-17T06:30:32.305Z,665
2016-05-17T06:31:32.136Z,670
2016-05-17T06:32:32.295Z,680
2016-05-17T06:33:32.298Z,680
2016-05-17T06:34:31.956Z,675
2016-05-17T06:35:32.272Z,685
2016-05-17T06:36:32.853Z,690
2016-05-17T06:37:32.105Z,690
2016-05-17T06:38:32.233Z,695
2016-05-17T06:39:32.063Z,695
2016-05-17T06:40:32.035Z,700
2016-05-17T06:41:31.694Z,705
2016-05-17T06:42:32.197Z,720
2016-05-17T06:43:32.183Z,715
2016-05-17T06:44:32.171Z,725
2016-05-17T06:45:31.986Z,720
2016-05-17T06:46:32.145Z,715
2016-05-17T06:47:32.116Z,710
2016-05-17T06:48:31.962Z,710
2016-05-17T06:49:32.106Z,700
2016-05-17T06:50:32.109Z,695
2016-05-17T06:51:32.221Z,685
2016-05-17T06:52:32.395Z,680
2016-05-17T06:53:32.070Z,675
2016-05-17T06:54:32.057Z,675
2016-05-17T06:55:32.059Z,665
2016-05-17T06:56:32.031Z,660
2016-05-17T06:57:31.861Z,665
2016-05-17T06:58:32.021Z,660
2016-05-17T06:59:32.023Z,670
2016-05-17T07:00:32.011Z,675
2016-05-17T07:01:31.981Z,690
2016-05-17T07:02:31.828Z,705
2016-05-17T07:03:31.972Z,730
2016-05-17T07:04:31.958Z,765
2016-05-17T07:05:31.805Z,785
2016-05-17T07:06:31.714Z,810
2016-05-17T07:07:31.623Z,825
2016-05-17T07:08:31.907Z,830
2016-05-17T07:09:31.753Z,835
2016-05-17T07:10:31.755Z,840
2016-05-17T07:11:31.899Z,835
2016-05-17T07:12:31.715Z,830
2016-05-17T07:13:31.889Z,820
2016-05-17T07:14:31.860Z,815
2016-05-17T07:15:31.832Z,815
2016-05-17T07:16:31.694Z,795
2016-05-17T07:17:31.854Z,780
2016-05-17T07:18:31.543Z,770
2016-05-17T07:19:31.812Z,760
2016-05-17T07:20:31.642Z,765
2016-05-17T07:21:31.489Z,785
2016-05-17T07:22:31.788Z,795
2016-05-17T07:23:31.462Z,805
2016-05-17T07:24:31.779Z,805
2016-05-17T07:25:31.750Z,795
2016-05-17T07:26:31.424Z,790
2016-05-17T07:27:31.427Z,790
2016-05-17T07:28:31.726Z,795
2016-05-17T07:29:31.729Z,810
2016-05-17T07:30:31.700Z,825
2016-05-17T07:31:31.687Z,830
2016-05-17T07:32:31.675Z,835
2016-05-17T07:33:31.678Z,845
2016-05-17T07:34:31.508Z,845
2016-05-17T07:35:31.652Z,850
2016-05-17T07:36:31.717Z,865
2016-05-17T07:37:31.750Z,880
2016-05-17T07:38:31.628Z,890
2016-05-17T07:39:31.616Z,905
2016-05-17T07:40:31.618Z,915
2016-05-17T07:41:31.589Z,925
2016-05-17T07:42:31.592Z,945
2016-05-17T07:43:31.594Z,970
2016-05-17T07:44:31.582Z,985
2016-05-17T07:45:31.568Z,1010
2016-05-17T07:46:31.557Z,1030
2016-05-17T07:47:31.544Z,1035
2016-05-17T07:48:31.546Z,1040
2016-05-17T07:49:31.377Z,1040
2016-05-17T07:50:31.535Z,1035
2016-05-17T07:51:31.226Z,1030
2016-05-17T07:52:31.213Z,1035
2016-05-17T07:53:31.340Z,1035
2016-05-17T07:54:31.515Z,1025
2016-05-17T07:55:31.470Z,990
2016-05-17T07:56:31.474Z,960
2016-05-17T07:57:31.461Z,920
2016-05-17T07:58:31.307Z,885
2016-05-17T07:59:31.435Z,860
2016-05-17T08:00:31.437Z,845
2016-05-17T08:01:31.440Z,825
2016-05-17T08:02:31.428Z,820
2016-05-17T08:03:31.258Z,805
2016-05-17T08:04:31.417Z,810
2016-05-17T08:05:31.403Z,820
2016-05-17T08:06:31.407Z,825
2016-05-17T08:07:31.394Z,830
2016-05-17T08:08:31.380Z,835
2016-05-17T08:09:31.650Z,840
2016-05-17T08:10:31.371Z,830
2016-05-17T08:11:31.358Z,820
2016-05-17T08:12:31.345Z,820
2016-05-17T08:13:31.347Z,820
2016-05-17T08:14:31.319Z,820
2016-05-17T08:15:31.321Z,835
2016-05-17T08:16:31.152Z,860
2016-05-17T08:17:31.311Z,885
2016-05-17T08:18:31.282Z,915
2016-05-17T08:19:31.129Z,940
2016-05-17T08:20:31.273Z,965
2016-05-17T08:21:30.946Z,990
2016-05-17T08:22:31.122Z,1000
2016-05-17T08:23:30.952Z,1005
2016-05-17T08:24:31.237Z,1000
2016-05-17T08:25:31.223Z,990
2016-05-17T08:26:31.070Z,975
2016-05-17T08:27:30.932Z,950
2016-05-17T08:28:31.215Z,935
2016-05-17T08:29:31.187Z,920
2016-05-17T08:30:31.190Z,910
2016-05-17T08:31:31.178Z,900
2016-05-17T08:32:31.180Z,890
2016-05-17T08:33:31.167Z,880
2016-05-17T08:34:31.139Z,870
2016-05-17T08:35:31.142Z,865
2016-05-17T08:36:31.175Z,870
2016-05-17T08:37:31.131Z,880
2016-05-17T08:38:30.962Z,895
2016-05-17T08:39:30.964Z,930
2016-05-17T08:40:30.967Z,965
2016-05-17T08:41:30.939Z,1015
2016-05-17T08:42:31.097Z,1050
2016-05-17T08:43:30.928Z,1095
2016-05-17T08:44:30.915Z,1135
2016-05-17T08:45:30.746Z,1175
2016-05-17T08:46:31.093Z,1215
2016-05-17T08:47:30.892Z,1250
2016-05-17T08:48:30.894Z,1285
2016-05-17T08:49:31.022Z,1310
2016-05-17T08:50:31.024Z,1325
2016-05-17T08:51:30.871Z,1335
2016-05-17T08:52:31.234Z,1330
2016-05-17T08:53:30.987Z,1345
2016-05-17T08:54:30.990Z,1360
2016-05-17T08:55:30.976Z,1385
2016-05-17T08:56:30.979Z,1410
2016-05-17T08:57:30.810Z,1440
2016-05-17T08:58:30.796Z,1470
2016-05-17T08:59:30.971Z,1495
2016-05-17T09:00:30.959Z,1510
2016-05-17T09:01:30.773Z,1545
2016-05-17T09:02:30.932Z,1580
2016-05-17T09:03:30.919Z,1625
2016-05-17T09:04:30.766Z,1645
2016-05-17T09:05:30.940Z,1700
2016-05-17T09:06:30.614Z,1735
2016-05-17T09:07:31.461Z,1780
2016-05-17T09:08:30.745Z,1785
2016-05-17T09:09:30.889Z,1780
2016-05-17T09:10:30.736Z,1725
2016-05-17T09:11:30.878Z,1720
2016-05-17T09:12:30.553Z,1730
2016-05-17T09:13:42.227Z,1725
2016-05-17T09:14:30.715Z,1780
2016-05-17T09:15:30.702Z,1845
2016-05-17T09:16:30.861Z,1930
2016-05-17T09:17:30.863Z,2045
2016-05-17T09:18:30.850Z,2020
2016-05-17T09:19:30.837Z,2010
2016-05-17T09:20:30.840Z,2190
2016-05-17T09:21:31.140Z,2225
2016-05-17T09:22:31.158Z,2020
2016-05-17T09:23:30.833Z,1910
2016-05-17T09:24:30.663Z,2010
2016-05-17T09:25:30.823Z,2220
2016-05-17T09:26:30.810Z,2155
2016-05-17T09:27:30.812Z,2045
2016-05-17T09:28:30.799Z,2320
2016-05-17T09:29:30.802Z,2430
2016-05-17T09:30:30.804Z,2585
2016-05-17T09:31:30.807Z,2640
2016-05-17T09:32:30.795Z,2470
2016-05-17T09:33:30.798Z,2350
2016-05-17T09:34:30.643Z,2310
2016-05-17T09:35:30.506Z,2310
2016-05-17T09:36:30.681Z,2210
2016-05-17T09:37:31.292Z,2140
2016-05-17T09:38:30.795Z,2295
2016-05-17T09:39:30.782Z,2135
2016-05-17T09:40:30.628Z,2210
2016-05-17T09:41:30.772Z,2245
2016-05-17T09:42:30.634Z,2235
2016-05-17T09:43:30.777Z,2310
2016-05-17T09:44:30.639Z,2305
2016-05-17T09:45:30.751Z,2365
2016-05-17T09:46:30.629Z,2375
2016-05-17T09:47:30.788Z,2390
2016-05-17T09:48:30.759Z,2430
2016-05-17T09:49:30.777Z,2395
2016-05-17T09:50:30.765Z,2540
2016-05-17T09:51:30.768Z,2515
2016-05-17T09:52:30.896Z,2475
2016-05-17T09:53:30.758Z,2530
2016-05-17T09:54:30.759Z,2495
2016-05-17T09:55:30.591Z,2460
2016-05-17T09:56:30.438Z,2755
2016-05-17T09:57:30.768Z,2595
2016-05-17T09:58:30.740Z,2760
2016-05-17T09:59:30.585Z,2545
2016-05-17T10:00:30.588Z,2280
2016-05-17T10:01:30.607Z,2010
2016-05-17T10:02:30.750Z,2365
2016-05-17T10:03:30.737Z,3405
2016-05-17T10:04:30.740Z,2625
2016-05-17T10:05:30.758Z,2740
2016-05-17T10:06:31.667Z,2375
2016-05-17T10:07:30.732Z,2140
2016-05-17T10:08:30.735Z,2455
2016-05-17T10:09:30.753Z,2825
2016-05-17T10:10:30.584Z,3365
2016-05-17T10:11:30.571Z,3255
2016-05-17T10:12:30.731Z,3500
2016-05-17T10:13:30.608Z,2670
2016-05-17T10:14:30.580Z,3685
2016-05-17T10:15:30.739Z,2060
2016-05-17T10:16:30.741Z,4445
2016-05-17T10:17:30.572Z,2800
2016-05-17T10:18:30.559Z,4195
2016-05-17T10:19:30.733Z,2945
2016-05-17T10:20:30.564Z,4165
2016-05-17T10:21:31.161Z,3965
2016-05-17T10:22:31.257Z,3440
2016-05-17T10:23:30.416Z,4030
2016-05-17T10:24:30.715Z,3230
2016-05-17T10:25:30.735Z,3115
2016-05-17T10:26:30.565Z,2850
2016-05-17T10:27:30.567Z,1660
2016-05-17T10:28:30.758Z,1460
2016-05-17T10:29:30.729Z,1590
2016-05-17T10:30:30.418Z,1560
2016-05-17T10:31:30.422Z,1640
2016-05-17T10:32:30.581Z,3535
2016-05-17T10:33:30.427Z,1035
2016-05-17T10:34:30.571Z,850
2016-05-17T10:35:30.714Z,725
2016-05-17T10:36:30.575Z,655
2016-05-17T10:37:30.563Z,625
2016-05-17T10:38:30.550Z,650
2016-05-17T10:39:30.709Z,700
2016-05-17T10:40:30.556Z,755
2016-05-17T10:41:30.559Z,815
2016-05-17T10:42:30.545Z,905
2016-05-17T10:43:30.704Z,1000
2016-05-17T10:44:30.551Z,1135
2016-05-17T10:45:30.694Z,1465
2016-05-17T10:46:30.697Z,1585
2016-05-17T10:47:30.715Z,2440
2016-05-17T10:48:30.686Z,4390
2016-05-17T10:49:30.377Z,4565
2016-05-17T10:50:30.677Z,4645
2016-05-17T10:51:30.961Z,4655
2016-05-17T10:52:31.244Z,2535
2016-05-17T10:53:30.669Z,2250
2016-05-17T10:54:30.671Z,1945
2016-05-17T10:55:30.502Z,1955
2016-05-17T10:56:30.661Z,2310
2016-05-17T10:57:30.648Z,2260
2016-05-17T10:58:30.651Z,2290
2016-05-17T10:59:30.654Z,2490
2016-05-17T11:00:30.688Z,2900
2016-05-17T11:01:30.643Z,1940
2016-05-17T11:02:30.662Z,1820
2016-05-17T11:03:30.507Z,2075
2016-05-17T11:04:30.682Z,2080
2016-05-17T11:05:30.638Z,1920
2016-05-17T11:06:30.672Z,1920
2016-05-17T11:07:30.581Z,1910
2016-05-17T11:08:30.475Z,2005
2016-05-17T11:09:30.478Z,1840
2016-05-17T11:10:30.526Z,1835
2016-05-17T11:11:30.639Z,2005
2016-05-17T11:12:30.156Z,2350
2016-05-17T11:13:30.628Z,1715
2016-05-17T11:14:30.459Z,1455
2016-05-17T11:15:30.618Z,1280
2016-05-17T11:16:30.339Z,1125
2016-05-17T11:17:30.624Z,1030
2016-05-17T11:18:30.298Z,1020
2016-05-17T11:19:30.630Z,1025
2016-05-17T11:20:30.304Z,1035
2016-05-17T11:21:31.196Z,1085
2016-05-17T11:22:30.308Z,1125
2016-05-17T11:23:30.594Z,1175
2016-05-17T11:24:30.611Z,1230
2016-05-17T11:25:30.286Z,1295
2016-05-17T11:26:30.602Z,1370
2016-05-17T11:27:30.432Z,1455
2016-05-17T11:28:30.591Z,1550
2016-05-17T11:29:30.593Z,1750
2016-05-17T11:30:30.109Z,2805
2016-05-17T11:31:30.599Z,4450
2016-05-17T11:32:30.586Z,4555
2016-05-17T11:33:30.573Z,4675
2016-05-17T11:34:30.591Z,3670
2016-05-17T11:35:30.563Z,4070
2016-05-17T11:36:30.565Z,2475
2016-05-17T11:37:30.440Z,2240
2016-05-17T11:38:30.552Z,2265
2016-05-17T11:39:30.571Z,2130
2016-05-17T11:40:30.417Z,1985
2016-05-17T11:41:30.561Z,1575
2016-05-17T11:42:30.564Z,1340
2016-05-17T11:43:30.597Z,1135
2016-05-17T11:44:30.537Z,990
2016-05-17T11:45:30.571Z,865
2016-05-17T11:46:30.386Z,790
2016-05-17T11:47:30.389Z,765
2016-05-17T11:48:30.564Z,795
2016-05-17T11:49:30.394Z,855
2016-05-17T11:50:30.381Z,925
2016-05-17T11:51:30.384Z,980
2016-05-17T11:52:30.621Z,1005
2016-05-17T11:53:30.374Z,995
2016-05-17T11:54:30.221Z,975
2016-05-17T11:55:30.535Z,935
2016-05-17T11:56:30.507Z,865
2016-05-17T11:57:30.525Z,790
2016-05-17T11:58:30.356Z,730
2016-05-17T11:59:30.375Z,680
2016-05-17T12:00:30.566Z,665
2016-05-17T12:01:30.489Z,675
2016-05-17T12:02:30.335Z,750
2016-05-17T12:03:30.495Z,850
2016-05-17T12:04:30.529Z,975
2016-05-17T12:05:30.312Z,1120
2016-05-17T12:06:30.160Z,1260
2016-05-17T12:07:30.318Z,1395
2016-05-17T12:08:30.304Z,1540
2016-05-17T12:09:30.464Z,1695
2016-05-17T12:10:30.451Z,1875
2016-05-17T12:11:30.453Z,2080
2016-05-17T12:12:30.456Z,2115
2016-05-17T12:13:30.459Z,2070
2016-05-17T12:14:30.306Z,2645
2016-05-17T12:15:30.652Z,2145
2016-05-17T12:16:30.436Z,2090
2016-05-17T12:17:30.439Z,2045
2016-05-17T12:18:30.285Z,1925
2016-05-17T12:19:30.288Z,1895
2016-05-17T12:20:30.431Z,1895
2016-05-17T12:21:30.434Z,1940
2016-05-17T12:22:30.280Z,2015
2016-05-17T12:23:30.408Z,1950
2016-05-17T12:24:30.426Z,1855
2016-05-17T12:25:30.257Z,1765
2016-05-17T12:26:30.416Z,1710
2016-05-17T12:27:30.403Z,1660
2016-05-17T12:28:30.249Z,1630
2016-05-17T12:29:30.408Z,1620
2016-05-17T12:30:30.239Z,1625
2016-05-17T12:31:30.242Z,1710
2016-05-17T12:32:30.229Z,1715
2016-05-17T12:33:30.404Z,1785
2016-05-17T12:34:30.391Z,1780
2016-05-17T12:35:30.377Z,1905
2016-05-17T12:36:30.380Z,2125
2016-05-17T12:37:30.226Z,1980
2016-05-17T12:38:30.370Z,1925
2016-05-17T12:39:30.388Z,1830
2016-05-17T12:40:30.079Z,1795
2016-05-17T12:41:30.362Z,1770
2016-05-17T12:42:30.209Z,1750
2016-05-17T12:43:30.368Z,1735
2016-05-17T12:44:30.371Z,1760
2016-05-17T12:45:30.358Z,1845
2016-05-17T12:46:30.376Z,1765
2016-05-17T12:47:30.348Z,1765
2016-05-17T12:48:30.366Z,1735
2016-05-17T12:49:30.196Z,1725
2016-05-17T12:50:30.027Z,1760
2016-05-17T12:51:30.233Z,1705
2016-05-17T12:52:30.377Z,1725
2016-05-17T12:53:30.035Z,1815
2016-05-17T12:54:30.178Z,1935
2016-05-17T12:55:30.338Z,2035
2016-05-17T12:56:30.341Z,2015
2016-05-17T12:57:30.172Z,3490
2016-05-17T12:58:30.346Z,2715
2016-05-17T12:59:30.332Z,2235
2016-05-17T13:00:30.023Z,3030
2016-05-17T13:01:30.010Z,2780
2016-05-17T13:02:30.341Z,4510
2016-05-17T13:03:30.172Z,4425
2016-05-17T13:04:30.346Z,4255
2016-05-17T13:05:30.318Z,3905
2016-05-17T13:06:30.321Z,2385
2016-05-17T13:07:30.838Z,2175
2016-05-17T13:08:30.326Z,4145
2016-05-17T13:09:30.343Z,1800
2016-05-17T13:10:30.159Z,1885
2016-05-17T13:11:30.178Z,1890
2016-05-17T13:12:30.165Z,1915
2016-05-17T13:13:30.026Z,2275
2016-05-17T13:14:30.326Z,2245
2016-05-17T13:15:30.329Z,2350
2016-05-17T13:16:30.332Z,3215
2016-05-17T13:17:30.320Z,2380
2016-05-17T13:18:30.322Z,2550
2016-05-17T13:19:30.339Z,3330
2016-05-17T13:20:30.327Z,3995
2016-05-17T13:21:30.345Z,2810
2016-05-17T13:22:30.754Z,2430
2016-05-17T13:23:30.335Z,2520
2016-05-17T13:24:30.338Z,1930
2016-05-17T13:25:30.168Z,1865
2016-05-17T13:26:30.359Z,1790
2016-05-17T13:27:30.330Z,2020
2016-05-17T13:28:30.317Z,1705
2016-05-17T13:29:30.163Z,1700
2016-05-17T13:30:30.025Z,1755
2016-05-17T13:31:30.324Z,2135
2016-05-17T13:32:30.327Z,2160
2016-05-17T13:33:30.205Z,2110
2016-05-17T13:34:30.349Z,3610
2016-05-17T13:35:30.038Z,1945
2016-05-17T13:36:30.323Z,2090
2016-05-17T13:37:30.779Z,2045
2016-05-17T13:38:30.329Z,2120
2016-05-17T13:39:30.378Z,2215
2016-05-17T13:40:30.162Z,3375
2016-05-17T13:41:30.165Z,3595
2016-05-17T13:42:30.168Z,2480
2016-05-17T13:43:30.326Z,3175
2016-05-17T13:44:30.157Z,2250
2016-05-17T13:45:30.348Z,2240
2016-05-17T13:46:30.162Z,2245
2016-05-17T13:47:30.321Z,2060
2016-05-17T13:48:30.324Z,2050
2016-05-17T13:49:30.312Z,2000
2016-05-17T13:50:30.158Z,2440
2016-05-17T13:51:30.317Z,2225
2016-05-17T13:52:30.381Z,2330
2016-05-17T13:53:30.306Z,2210